createdAt,value
2017-01-29T00:00:23.116Z,733.87
2017-01-29T00:01:23.094Z,733.83
2017-01-29T00:02:23.074Z,733.83
2017-01-29T00:03:23.052Z,733.79
2017-01-29T00:04:23.034Z,733.8
2017-01-29T00:05:23.014Z,733.85
2017-01-29T00:06:22.994Z,733.87
2017-01-29T00:07:22.970Z,733.86
2017-01-29T00:08:22.952Z,733.86
2017-01-29T00:09:22.932Z,733.84
2017-01-29T00:10:22.913Z,733.82
2017-01-29T00:11:22.893Z,733.82
2017-01-29T00:12:22.868Z,733.87
2017-01-29T00:13:22.848Z,733.84
2017-01-29T00:14:22.828Z,733.81
2017-01-29T00:15:22.808Z,733.84
2017-01-29T00:16:22.789Z,733.83
2017-01-29T00:17:22.767Z,733.83
2017-01-29T00:18:22.746Z,733.87
2017-01-29T00:19:22.724Z,733.78
2017-01-29T00:20:22.709Z,733.8
2017-01-29T00:21:22.688Z,733.84
2017-01-29T00:22:22.667Z,733.79
2017-01-29T00:23:22.645Z,733.8
2017-01-29T00:24:22.627Z,733.83
2017-01-29T00:25:22.607Z,733.75
2017-01-29T00:26:22.588Z,733.79
2017-01-29T00:27:22.563Z,733.78
2017-01-29T00:28:22.548Z,733.78
2017-01-29T00:29:22.524Z,733.82
2017-01-29T00:30:22.504Z,733.75
2017-01-29T00:31:22.483Z,733.79
2017-01-29T00:32:22.461Z,733.77
2017-01-29T00:33:22.443Z,733.78
2017-01-29T00:34:22.419Z,733.79
2017-01-29T00:35:22.402Z,733.77
2017-01-29T00:36:22.382Z,733.76
2017-01-29T00:37:22.361Z,733.74
2017-01-29T00:38:22.338Z,733.76
2017-01-29T00:39:22.318Z,733.75
2017-01-29T00:40:22.298Z,733.76
2017-01-29T00:41:22.280Z,733.74
2017-01-29T00:42:22.257Z,733.77
2017-01-29T00:43:22.238Z,733.76
2017-01-29T00:44:22.221Z,733.78
2017-01-29T00:45:22.200Z,733.79
2017-01-29T00:46:22.181Z,733.73
2017-01-29T00:47:22.158Z,733.74
2017-01-29T00:48:22.138Z,733.75
2017-01-29T00:49:22.124Z,733.75
2017-01-29T00:50:22.097Z,733.76
2017-01-29T00:51:22.082Z,733.77
2017-01-29T00:52:22.062Z,733.72
2017-01-29T00:53:22.039Z,733.72
2017-01-29T00:54:22.023Z,733.77
2017-01-29T00:55:22.006Z,733.74
2017-01-29T00:56:21.982Z,733.73
2017-01-29T00:57:21.964Z,733.68
2017-01-29T00:58:21.941Z,733.72
2017-01-29T00:59:21.922Z,733.72
2017-01-29T01:00:21.900Z,733.72
2017-01-29T01:01:21.880Z,733.69
2017-01-29T01:02:21.864Z,733.71
2017-01-29T01:03:21.843Z,733.75
2017-01-29T01:04:21.820Z,733.72
2017-01-29T01:05:21.804Z,733.71
2017-01-29T01:06:21.781Z,733.72
2017-01-29T01:07:21.759Z,733.72
2017-01-29T01:08:21.744Z,733.75
2017-01-29T01:09:21.721Z,733.8
2017-01-29T01:10:21.702Z,733.81
2017-01-29T01:11:21.681Z,733.81
2017-01-29T01:12:21.662Z,733.79
2017-01-29T01:13:21.643Z,733.8
2017-01-29T01:14:21.623Z,733.79
2017-01-29T01:15:21.604Z,733.83
2017-01-29T01:16:21.587Z,733.82
2017-01-29T01:17:21.566Z,733.83
2017-01-29T01:18:21.546Z,733.82
2017-01-29T01:19:21.530Z,733.78
2017-01-29T01:20:21.516Z,733.78
2017-01-29T01:21:21.489Z,733.82
2017-01-29T01:22:21.469Z,733.84
2017-01-29T01:23:21.454Z,733.81
2017-01-29T01:24:21.432Z,733.8
2017-01-29T01:25:21.411Z,733.79
2017-01-29T01:26:21.396Z,733.83
2017-01-29T01:27:21.377Z,733.83
2017-01-29T01:28:21.359Z,733.83
2017-01-29T01:29:21.337Z,733.81
2017-01-29T01:30:21.319Z,733.77
2017-01-29T01:31:21.302Z,733.78
2017-01-29T01:32:21.280Z,733.78
2017-01-29T01:33:21.264Z,733.78
2017-01-29T01:34:21.243Z,733.78
2017-01-29T01:35:21.227Z,733.74
2017-01-29T01:36:21.208Z,733.72
2017-01-29T01:37:21.186Z,733.72
2017-01-29T01:38:21.170Z,733.76
2017-01-29T01:39:21.149Z,733.77
2017-01-29T01:40:21.133Z,733.71
2017-01-29T01:41:21.110Z,733.72
2017-01-29T01:42:21.095Z,733.78
2017-01-29T01:43:21.075Z,733.76
2017-01-29T01:44:21.055Z,733.78
2017-01-29T01:45:21.038Z,733.75
2017-01-29T01:46:21.020Z,733.79
2017-01-29T01:47:20.998Z,733.75
2017-01-29T01:48:20.978Z,733.75
2017-01-29T01:49:20.963Z,733.74
2017-01-29T01:50:20.941Z,733.76
2017-01-29T01:51:20.925Z,733.76
2017-01-29T01:52:20.903Z,733.78
2017-01-29T01:53:20.884Z,733.75
2017-01-29T01:54:20.865Z,733.77
2017-01-29T01:55:20.846Z,733.76
2017-01-29T01:56:20.831Z,733.79
2017-01-29T01:57:20.812Z,733.76
2017-01-29T01:58:20.792Z,733.75
2017-01-29T01:59:20.770Z,733.72
2017-01-29T02:00:20.754Z,733.76
2017-01-29T02:01:20.734Z,733.78
2017-01-29T02:02:20.716Z,733.77
2017-01-29T02:03:20.697Z,733.77
2017-01-29T02:04:20.678Z,733.79
2017-01-29T02:05:20.658Z,733.77
2017-01-29T02:06:20.636Z,733.8
2017-01-29T02:07:20.620Z,733.82
2017-01-29T02:08:20.599Z,733.85
2017-01-29T02:09:20.582Z,733.8
2017-01-29T02:10:20.561Z,733.82
2017-01-29T02:11:20.544Z,733.81
2017-01-29T02:12:20.523Z,733.84
2017-01-29T02:13:20.506Z,733.84
2017-01-29T02:14:20.485Z,733.85
2017-01-29T02:15:20.470Z,733.81
2017-01-29T02:16:20.450Z,733.79
2017-01-29T02:17:20.429Z,733.8
2017-01-29T02:18:20.410Z,733.78
2017-01-29T02:19:20.394Z,733.78
2017-01-29T02:20:20.375Z,733.76
2017-01-29T02:21:20.354Z,733.77
2017-01-29T02:22:20.338Z,733.82
2017-01-29T02:23:20.315Z,733.82
2017-01-29T02:24:20.297Z,733.76
2017-01-29T02:25:20.281Z,733.8
2017-01-29T02:26:20.263Z,733.76
2017-01-29T02:27:20.243Z,733.76
2017-01-29T02:28:20.225Z,733.78
2017-01-29T02:29:20.212Z,733.76
2017-01-29T02:30:20.187Z,733.76
2017-01-29T02:31:20.169Z,733.73
2017-01-29T02:32:20.147Z,733.73
2017-01-29T02:33:20.131Z,733.72
2017-01-29T02:34:20.113Z,733.76
2017-01-29T02:35:20.090Z,733.8
2017-01-29T02:36:20.075Z,733.76
2017-01-29T02:37:20.053Z,733.76
2017-01-29T02:38:20.037Z,733.76
2017-01-29T02:39:20.019Z,733.7
2017-01-29T02:40:19.997Z,733.72
2017-01-29T02:41:19.982Z,733.77
2017-01-29T02:42:19.962Z,733.74
2017-01-29T02:43:19.941Z,733.76
2017-01-29T02:44:19.923Z,733.75
2017-01-29T02:45:19.907Z,733.77
2017-01-29T02:46:19.886Z,733.8
2017-01-29T02:47:19.868Z,733.8
2017-01-29T02:48:19.849Z,733.76
2017-01-29T02:49:19.829Z,733.82
2017-01-29T02:50:19.811Z,733.8
2017-01-29T02:51:19.794Z,733.79
2017-01-29T02:52:19.774Z,733.8
2017-01-29T02:53:19.758Z,733.81
2017-01-29T02:54:19.735Z,733.81
2017-01-29T02:55:19.719Z,733.8
2017-01-29T02:56:19.700Z,733.8
2017-01-29T02:57:19.677Z,733.83
2017-01-29T02:58:19.659Z,733.83
2017-01-29T02:59:19.643Z,733.8
2017-01-29T03:00:19.622Z,733.82
2017-01-29T03:01:19.601Z,733.84
2017-01-29T03:02:19.584Z,733.82
2017-01-29T03:03:19.562Z,733.81
2017-01-29T03:04:19.542Z,733.8
2017-01-29T03:05:19.522Z,733.79
2017-01-29T03:06:19.509Z,733.81
2017-01-29T03:07:19.484Z,733.81
2017-01-29T03:08:19.469Z,733.82
2017-01-29T03:09:19.452Z,733.83
2017-01-29T03:10:19.429Z,733.77
2017-01-29T03:11:19.406Z,733.8
2017-01-29T03:12:19.386Z,733.79
2017-01-29T03:13:19.370Z,733.74
2017-01-29T03:14:19.347Z,733.78
2017-01-29T03:15:19.330Z,733.8
2017-01-29T03:16:19.307Z,733.76
2017-01-29T03:17:19.288Z,733.78
2017-01-29T03:18:19.268Z,733.76
2017-01-29T03:19:19.250Z,733.77
2017-01-29T03:20:19.230Z,733.8
2017-01-29T03:21:19.208Z,733.76
2017-01-29T03:22:19.194Z,733.77
2017-01-29T03:23:19.171Z,733.82
2017-01-29T03:24:19.153Z,733.79
2017-01-29T03:25:19.131Z,733.83
2017-01-29T03:26:19.114Z,733.83
2017-01-29T03:27:19.092Z,733.86
2017-01-29T03:28:19.072Z,733.82
2017-01-29T03:29:19.052Z,733.85
2017-01-29T03:30:19.033Z,733.79
2017-01-29T03:31:19.013Z,733.79
2017-01-29T03:32:18.991Z,733.78
2017-01-29T03:33:18.971Z,733.83
2017-01-29T03:34:19.154Z,733.8
2017-01-29T03:35:18.934Z,733.86
2017-01-29T03:36:18.913Z,733.82
2017-01-29T03:37:18.891Z,733.82
2017-01-29T03:38:18.874Z,733.85
2017-01-29T03:39:18.857Z,733.78
2017-01-29T03:40:18.840Z,733.79
2017-01-29T03:41:18.816Z,733.77
2017-01-29T03:42:18.800Z,733.71
2017-01-29T03:43:18.777Z,733.78
2017-01-29T03:44:18.756Z,733.79
2017-01-29T03:45:18.741Z,733.76
2017-01-29T03:46:18.721Z,733.75
2017-01-29T03:47:18.706Z,733.77
2017-01-29T03:48:18.681Z,733.76
2017-01-29T03:49:18.663Z,733.77
2017-01-29T03:50:18.640Z,733.78
2017-01-29T03:51:18.622Z,733.8
2017-01-29T03:52:18.607Z,733.78
2017-01-29T03:53:18.579Z,733.83
2017-01-29T03:54:18.565Z,733.81
2017-01-29T03:55:18.542Z,733.75
2017-01-29T03:56:18.526Z,733.77
2017-01-29T03:57:18.503Z,733.79
2017-01-29T03:58:18.487Z,733.76
2017-01-29T03:59:18.465Z,733.81
2017-01-29T04:00:18.448Z,733.82
2017-01-29T04:01:18.426Z,733.79
2017-01-29T04:02:18.409Z,733.83
2017-01-29T04:03:18.388Z,733.76
2017-01-29T04:04:18.369Z,733.81
2017-01-29T04:05:18.352Z,733.81
2017-01-29T04:06:18.332Z,733.79
2017-01-29T04:07:18.516Z,733.8
2017-01-29T04:08:18.292Z,733.84
2017-01-29T04:09:18.272Z,733.84
2017-01-29T04:10:18.252Z,733.84
2017-01-29T04:11:18.236Z,733.83
2017-01-29T04:12:18.214Z,733.83
2017-01-29T04:13:18.194Z,733.82
2017-01-29T04:14:18.175Z,733.83
2017-01-29T04:15:18.157Z,733.82
2017-01-29T04:16:18.140Z,733.81
2017-01-29T04:17:18.117Z,733.83
2017-01-29T04:18:18.102Z,733.84
2017-01-29T04:19:18.082Z,733.84
2017-01-29T04:20:18.061Z,733.86
2017-01-29T04:21:18.044Z,733.83
2017-01-29T04:22:18.025Z,733.85
2017-01-29T04:23:18.006Z,733.89
2017-01-29T04:24:17.983Z,733.83
2017-01-29T04:25:17.967Z,733.84
2017-01-29T04:26:17.948Z,733.86
2017-01-29T04:27:17.934Z,733.88
2017-01-29T04:28:17.906Z,733.86
2017-01-29T04:29:17.887Z,733.85
2017-01-29T04:30:17.869Z,733.87
2017-01-29T04:31:17.853Z,733.88
2017-01-29T04:32:17.833Z,733.9
2017-01-29T04:33:17.815Z,733.87
2017-01-29T04:34:17.796Z,733.86
2017-01-29T04:35:17.772Z,733.82
2017-01-29T04:36:17.759Z,733.84
2017-01-29T04:37:17.738Z,733.83
2017-01-29T04:38:17.718Z,733.84
2017-01-29T04:39:17.699Z,733.81
2017-01-29T04:40:17.679Z,733.85
2017-01-29T04:41:17.660Z,733.84
2017-01-29T04:42:17.641Z,733.82
2017-01-29T04:43:17.625Z,733.84
2017-01-29T04:44:17.603Z,733.82
2017-01-29T04:45:17.584Z,733.82
2017-01-29T04:46:17.765Z,733.88
2017-01-29T04:47:17.746Z,733.83
2017-01-29T04:48:17.524Z,733.84
2017-01-29T04:49:17.502Z,733.85
2017-01-29T04:50:17.485Z,733.84
2017-01-29T04:51:17.466Z,733.81
2017-01-29T04:52:17.443Z,733.86
2017-01-29T04:53:17.427Z,733.85
2017-01-29T04:54:17.407Z,733.86
2017-01-29T04:55:17.388Z,733.87
2017-01-29T04:56:17.388Z,733.86
2017-01-29T04:57:17.363Z,733.84
2017-01-29T04:58:17.330Z,733.84
2017-01-29T04:59:17.308Z,733.87
2017-01-29T05:00:17.289Z,733.86
2017-01-29T05:01:17.272Z,733.84
2017-01-29T05:02:17.253Z,733.8
2017-01-29T05:03:17.234Z,733.81
2017-01-29T05:04:17.220Z,733.83
2017-01-29T05:05:17.197Z,733.83
2017-01-29T05:06:17.176Z,733.87
2017-01-29T05:07:17.157Z,733.83
2017-01-29T05:08:17.136Z,733.84
2017-01-29T05:09:17.116Z,733.87
2017-01-29T05:10:17.094Z,733.87
2017-01-29T05:11:17.075Z,733.86
2017-01-29T05:12:17.056Z,733.89
2017-01-29T05:13:17.040Z,733.89
2017-01-29T05:14:17.018Z,733.87
2017-01-29T05:15:17.001Z,733.86
2017-01-29T05:16:16.979Z,733.89
2017-01-29T05:17:16.959Z,733.9
2017-01-29T05:18:16.943Z,733.91
2017-01-29T05:19:16.924Z,733.86
2017-01-29T05:20:16.904Z,733.9
2017-01-29T05:21:16.883Z,733.91
2017-01-29T05:22:16.867Z,733.94
2017-01-29T05:23:16.844Z,733.94
2017-01-29T05:24:16.828Z,733.95
2017-01-29T05:25:16.809Z,733.95
2017-01-29T05:26:16.785Z,733.98
2017-01-29T05:27:16.770Z,733.94
2017-01-29T05:28:16.751Z,733.96
2017-01-29T05:29:16.732Z,733.96
2017-01-29T05:30:16.712Z,733.95
2017-01-29T05:31:16.693Z,733.93
2017-01-29T05:32:16.670Z,733.95
2017-01-29T05:33:16.654Z,733.98
2017-01-29T05:34:16.634Z,733.93
2017-01-29T05:35:16.615Z,733.95
2017-01-29T05:36:16.595Z,733.96
2017-01-29T05:37:16.571Z,733.98
2017-01-29T05:38:16.552Z,733.95
2017-01-29T05:39:16.532Z,734.01
2017-01-29T05:40:16.515Z,733.99
2017-01-29T05:41:16.500Z,733.98
2017-01-29T05:42:16.473Z,734
2017-01-29T05:43:16.455Z,733.97
2017-01-29T05:44:16.432Z,733.95
2017-01-29T05:45:16.415Z,734.02
2017-01-29T05:46:16.395Z,734
2017-01-29T05:47:16.376Z,734.02
2017-01-29T05:48:16.355Z,734.06
2017-01-29T05:49:16.334Z,734.04
2017-01-29T05:50:16.315Z,734.03
2017-01-29T05:51:16.292Z,734.06
2017-01-29T05:52:16.274Z,734.04
2017-01-29T05:53:16.252Z,734.12
2017-01-29T05:54:16.233Z,734.08
2017-01-29T05:55:16.213Z,734.07
2017-01-29T05:56:16.192Z,734.08
2017-01-29T05:57:16.175Z,734.06
2017-01-29T05:58:16.153Z,734.07
2017-01-29T05:59:16.136Z,734.09
2017-01-29T06:00:16.113Z,734.03
2017-01-29T06:01:16.092Z,734.1
2017-01-29T06:02:16.081Z,734.09
2017-01-29T06:03:16.052Z,734.03
2017-01-29T06:04:16.036Z,734.1
2017-01-29T06:05:16.016Z,734.04
2017-01-29T06:06:15.997Z,734.08
2017-01-29T06:07:15.972Z,734.07
2017-01-29T06:08:15.956Z,734.1
2017-01-29T06:09:15.932Z,734.08
2017-01-29T06:10:15.910Z,734.09
2017-01-29T06:11:15.890Z,734.11
2017-01-29T06:12:15.869Z,734.12
2017-01-29T06:13:15.853Z,734.13
2017-01-29T06:14:15.832Z,734.16
2017-01-29T06:15:15.808Z,734.13
2017-01-29T06:16:15.787Z,734.15
2017-01-29T06:17:15.766Z,734.12
2017-01-29T06:18:15.749Z,734.17
2017-01-29T06:19:15.729Z,734.16
2017-01-29T06:20:15.705Z,734.18
2017-01-29T06:21:15.686Z,734.13
2017-01-29T06:22:15.662Z,734.16
2017-01-29T06:23:15.642Z,734.17
2017-01-29T06:24:15.621Z,734.19
2017-01-29T06:25:15.600Z,734.18
2017-01-29T06:26:15.583Z,734.18
2017-01-29T06:27:15.559Z,734.18
2017-01-29T06:28:15.538Z,734.18
2017-01-29T06:29:15.517Z,734.2
2017-01-29T06:30:15.507Z,734.18
2017-01-29T06:31:15.475Z,734.18
2017-01-29T06:32:15.456Z,734.2
2017-01-29T06:33:15.436Z,734.22
2017-01-29T06:34:15.416Z,734.23
2017-01-29T06:35:15.391Z,734.22
2017-01-29T06:36:15.374Z,734.26
2017-01-29T06:37:15.353Z,734.21
2017-01-29T06:38:15.331Z,734.23
2017-01-29T06:39:15.311Z,734.22
2017-01-29T06:40:15.286Z,734.26
2017-01-29T06:41:15.267Z,734.25
2017-01-29T06:42:15.247Z,734.2
2017-01-29T06:43:15.222Z,734.22
2017-01-29T06:44:15.206Z,734.27
2017-01-29T06:45:15.181Z,734.24
2017-01-29T06:46:15.168Z,734.25
2017-01-29T06:47:15.143Z,734.25
2017-01-29T06:48:15.122Z,734.26
2017-01-29T06:49:15.102Z,734.3
2017-01-29T06:50:15.079Z,734.3
2017-01-29T06:51:15.056Z,734.28
2017-01-29T06:52:15.039Z,734.25
2017-01-29T06:53:15.017Z,734.27
2017-01-29T06:54:14.999Z,734.26
2017-01-29T06:55:14.973Z,734.29
2017-01-29T06:56:14.955Z,734.31
2017-01-29T06:57:14.933Z,734.31
2017-01-29T06:58:14.913Z,734.3
2017-01-29T06:59:14.893Z,734.33
2017-01-29T07:00:14.873Z,734.36
2017-01-29T07:01:14.851Z,734.37
2017-01-29T07:02:14.832Z,734.35
2017-01-29T07:03:14.819Z,734.37
2017-01-29T07:04:14.792Z,734.33
2017-01-29T07:05:14.767Z,734.39
2017-01-29T07:06:14.748Z,734.39
2017-01-29T07:07:14.731Z,734.38
2017-01-29T07:08:14.711Z,734.41
2017-01-29T07:09:14.687Z,734.35
2017-01-29T07:10:14.668Z,734.39
2017-01-29T07:11:14.654Z,734.45
2017-01-29T07:12:14.630Z,734.45
2017-01-29T07:13:14.612Z,734.46
2017-01-29T07:14:14.593Z,734.5
2017-01-29T07:15:14.574Z,734.45
2017-01-29T07:16:14.555Z,734.47
2017-01-29T07:17:14.539Z,734.48
2017-01-29T07:18:14.521Z,734.49
2017-01-29T07:19:14.500Z,734.5
2017-01-29T07:20:14.485Z,734.5
2017-01-29T07:21:14.467Z,734.48
2017-01-29T07:22:14.446Z,734.45
2017-01-29T07:23:14.431Z,734.48
2017-01-29T07:24:14.411Z,734.5
2017-01-29T07:25:14.393Z,734.51
2017-01-29T07:26:14.381Z,734.52
2017-01-29T07:27:14.356Z,734.47
2017-01-29T07:28:14.347Z,734.48
2017-01-29T07:29:14.325Z,734.48
2017-01-29T07:30:14.309Z,734.51
2017-01-29T07:31:14.288Z,734.47
2017-01-29T07:32:14.275Z,734.47
2017-01-29T07:33:14.257Z,734.53
2017-01-29T07:34:14.239Z,734.5
2017-01-29T07:35:14.224Z,734.49
2017-01-29T07:36:14.202Z,734.48
2017-01-29T07:37:14.192Z,734.47
2017-01-29T07:38:14.173Z,734.48
2017-01-29T07:39:14.157Z,734.47
2017-01-29T07:40:14.142Z,734.48
2017-01-29T07:41:14.125Z,734.51
2017-01-29T07:42:14.105Z,734.5
2017-01-29T07:43:14.090Z,734.5
2017-01-29T07:44:14.074Z,734.49
2017-01-29T07:45:14.057Z,734.58
2017-01-29T07:46:14.042Z,734.51
2017-01-29T07:47:14.026Z,734.5
2017-01-29T07:48:14.011Z,734.5
2017-01-29T07:49:13.998Z,734.53
2017-01-29T07:50:13.986Z,734.56
2017-01-29T07:51:13.969Z,734.57
2017-01-29T07:52:13.951Z,734.55
2017-01-29T07:53:13.940Z,734.54
2017-01-29T07:54:13.925Z,734.58
2017-01-29T07:55:13.906Z,734.57
2017-01-29T07:56:13.890Z,734.56
2017-01-29T07:57:13.878Z,734.57
2017-01-29T07:58:13.861Z,734.61
2017-01-29T07:59:13.851Z,734.57
2017-01-29T08:00:13.832Z,734.53
2017-01-29T08:01:13.821Z,734.52
2017-01-29T08:02:13.822Z,734.52
2017-01-29T08:03:13.789Z,734.56
2017-01-29T08:04:13.778Z,734.57
2017-01-29T08:05:13.761Z,734.54
2017-01-29T08:06:13.752Z,734.54
2017-01-29T08:07:13.736Z,734.57
2017-01-29T08:08:13.722Z,734.6
2017-01-29T08:09:13.706Z,734.57
2017-01-29T08:10:13.692Z,734.59
2017-01-29T08:11:13.681Z,734.56
2017-01-29T08:12:13.665Z,734.56
2017-01-29T08:13:13.656Z,734.58
2017-01-29T08:14:13.641Z,734.56
2017-01-29T08:15:13.628Z,734.56
2017-01-29T08:16:13.612Z,734.56
2017-01-29T08:17:13.598Z,734.59
2017-01-29T08:18:13.584Z,734.54
2017-01-29T08:19:13.572Z,734.62
2017-01-29T08:20:13.559Z,734.56
2017-01-29T08:21:13.545Z,734.59
2017-01-29T08:22:13.528Z,734.59
2017-01-29T08:23:13.513Z,734.59
2017-01-29T08:24:13.502Z,734.57
2017-01-29T08:25:13.490Z,734.57
2017-01-29T08:26:13.475Z,734.58
2017-01-29T08:27:13.459Z,734.57
2017-01-29T08:28:13.446Z,734.62
2017-01-29T08:29:13.435Z,734.6
2017-01-29T08:30:13.419Z,734.61
2017-01-29T08:31:13.405Z,734.6
2017-01-29T08:32:13.391Z,734.61
2017-01-29T08:33:13.381Z,734.61
2017-01-29T08:34:13.364Z,734.61
2017-01-29T08:35:13.356Z,734.63
2017-01-29T08:36:13.338Z,734.62
2017-01-29T08:37:13.323Z,734.63
2017-01-29T08:38:13.315Z,734.63
2017-01-29T08:39:13.303Z,734.64
2017-01-29T08:40:13.285Z,734.64
2017-01-29T08:41:13.276Z,734.63
2017-01-29T08:42:13.263Z,734.64
2017-01-29T08:43:13.247Z,734.64
2017-01-29T08:44:13.236Z,734.62
2017-01-29T08:45:13.220Z,734.66
2017-01-29T08:46:13.208Z,734.68
2017-01-29T08:47:13.193Z,734.67
2017-01-29T08:48:13.180Z,734.66
2017-01-29T08:49:13.170Z,734.67
2017-01-29T08:50:13.159Z,734.71
2017-01-29T08:51:13.142Z,734.7
2017-01-29T08:52:13.126Z,734.68
2017-01-29T08:53:13.117Z,734.71
2017-01-29T08:54:13.100Z,734.69
2017-01-29T08:55:13.091Z,734.73
2017-01-29T08:56:13.076Z,734.72
2017-01-29T08:57:13.061Z,734.73
2017-01-29T08:58:13.050Z,734.7
2017-01-29T08:59:13.038Z,734.76
2017-01-29T09:00:13.025Z,734.75
2017-01-29T09:01:13.017Z,734.74
2017-01-29T09:02:12.997Z,734.77
2017-01-29T09:03:12.985Z,734.79
2017-01-29T09:04:12.972Z,734.79
2017-01-29T09:05:12.957Z,734.75
2017-01-29T09:06:12.946Z,734.75
2017-01-29T09:07:12.930Z,734.73
2017-01-29T09:08:12.915Z,734.79
2017-01-29T09:09:12.903Z,734.75
2017-01-29T09:10:12.892Z,734.77
2017-01-29T09:11:12.876Z,734.78
2017-01-29T09:12:12.866Z,734.79
2017-01-29T09:13:12.849Z,734.81
2017-01-29T09:14:12.837Z,734.82
2017-01-29T09:15:12.826Z,734.79
2017-01-29T09:16:12.813Z,734.82
2017-01-29T09:17:12.798Z,734.81
2017-01-29T09:18:12.787Z,734.78
2017-01-29T09:19:12.769Z,734.84
2017-01-29T09:20:12.760Z,734.88
2017-01-29T09:21:12.746Z,734.83
2017-01-29T09:22:12.732Z,734.78
2017-01-29T09:23:12.721Z,734.81
2017-01-29T09:24:12.704Z,734.75
2017-01-29T09:25:12.696Z,734.81
2017-01-29T09:26:12.683Z,734.77
2017-01-29T09:27:12.669Z,734.82
2017-01-29T09:28:12.657Z,734.79
2017-01-29T09:29:12.642Z,734.78
2017-01-29T09:30:12.629Z,734.77
2017-01-29T09:31:12.618Z,734.8
2017-01-29T09:32:12.605Z,734.84
2017-01-29T09:33:12.598Z,734.84
2017-01-29T09:34:12.579Z,734.78
2017-01-29T09:35:12.566Z,734.83
2017-01-29T09:36:12.559Z,734.81
2017-01-29T09:37:12.537Z,734.82
2017-01-29T09:38:12.524Z,734.84
2017-01-29T09:39:12.516Z,734.86
2017-01-29T09:40:12.501Z,734.83
2017-01-29T09:41:12.488Z,734.87
2017-01-29T09:42:12.474Z,734.92
2017-01-29T09:43:12.461Z,734.89
2017-01-29T09:44:12.449Z,734.85
2017-01-29T09:45:12.433Z,734.9
2017-01-29T09:46:12.418Z,734.91
2017-01-29T09:47:12.404Z,734.88
2017-01-29T09:48:12.394Z,734.89
2017-01-29T09:49:12.383Z,734.86
2017-01-29T09:50:12.366Z,734.86
2017-01-29T09:51:12.356Z,734.89
2017-01-29T09:52:12.345Z,734.88
2017-01-29T09:53:12.329Z,734.89
2017-01-29T09:54:12.317Z,734.84
2017-01-29T09:55:12.301Z,734.82
2017-01-29T09:56:12.292Z,734.85
2017-01-29T09:57:12.276Z,734.86
2017-01-29T09:58:12.267Z,734.83
2017-01-29T09:59:12.251Z,734.81
2017-01-29T10:00:12.240Z,734.81
2017-01-29T10:01:12.225Z,734.82
2017-01-29T10:02:12.214Z,734.79
2017-01-29T10:03:12.202Z,734.84
2017-01-29T10:04:12.187Z,734.85
2017-01-29T10:05:12.179Z,734.84
2017-01-29T10:06:12.167Z,734.84
2017-01-29T10:07:12.153Z,734.84
2017-01-29T10:08:12.139Z,734.82
2017-01-29T10:09:12.129Z,734.89
2017-01-29T10:10:12.118Z,734.83
2017-01-29T10:11:12.102Z,734.83
2017-01-29T10:12:12.094Z,734.85
2017-01-29T10:13:12.078Z,734.85
2017-01-29T10:14:12.072Z,734.79
2017-01-29T10:15:12.056Z,734.81
2017-01-29T10:16:12.047Z,734.85
2017-01-29T10:17:12.035Z,734.8
2017-01-29T10:18:12.020Z,734.83
2017-01-29T10:19:12.007Z,734.8
2017-01-29T10:20:11.994Z,734.79
2017-01-29T10:21:11.982Z,734.77
2017-01-29T10:22:11.974Z,734.76
2017-01-29T10:23:11.959Z,734.77
2017-01-29T10:24:11.947Z,734.76
2017-01-29T10:25:11.939Z,734.74
2017-01-29T10:26:11.926Z,734.74
2017-01-29T10:27:11.911Z,734.73
2017-01-29T10:28:11.904Z,734.75
2017-01-29T10:29:11.890Z,734.74
2017-01-29T10:30:11.875Z,734.74
2017-01-29T10:31:11.868Z,734.72
2017-01-29T10:32:11.852Z,734.73
2017-01-29T10:33:11.841Z,734.7
2017-01-29T10:34:11.830Z,734.68
2017-01-29T10:35:11.818Z,734.7
2017-01-29T10:36:11.811Z,734.69
2017-01-29T10:37:11.793Z,734.71
2017-01-29T10:38:11.786Z,734.71
2017-01-29T10:39:11.775Z,734.69
2017-01-29T10:40:11.765Z,734.67
2017-01-29T10:41:11.753Z,734.64
2017-01-29T10:42:11.742Z,734.66
2017-01-29T10:43:11.730Z,734.66
2017-01-29T10:44:11.719Z,734.64
2017-01-29T10:45:11.706Z,734.63
2017-01-29T10:46:11.696Z,734.59
2017-01-29T10:47:11.680Z,734.6
2017-01-29T10:48:11.670Z,734.58
2017-01-29T10:49:11.659Z,734.6
2017-01-29T10:50:11.653Z,734.59
2017-01-29T10:51:11.634Z,734.6
2017-01-29T10:52:11.621Z,734.59
2017-01-29T10:53:11.609Z,734.53
2017-01-29T10:54:11.601Z,734.57
2017-01-29T10:55:11.585Z,734.54
2017-01-29T10:56:11.578Z,734.59
2017-01-29T10:57:11.566Z,734.57
2017-01-29T10:58:11.553Z,734.53
2017-01-29T10:59:11.537Z,734.47
2017-01-29T11:00:11.530Z,734.51
2017-01-29T11:01:11.519Z,734.5
2017-01-29T11:02:11.506Z,734.51
2017-01-29T11:03:11.496Z,734.5
2017-01-29T11:04:11.485Z,734.5
2017-01-29T11:05:11.470Z,734.48
2017-01-29T11:06:11.466Z,734.48
2017-01-29T11:07:11.449Z,734.45
2017-01-29T11:08:11.436Z,734.49
2017-01-29T11:09:11.428Z,734.45
2017-01-29T11:10:11.412Z,734.46
2017-01-29T11:11:11.404Z,734.41
2017-01-29T11:12:11.392Z,734.46
2017-01-29T11:13:11.376Z,734.45
2017-01-29T11:14:11.365Z,734.45
2017-01-29T11:15:11.357Z,734.44
2017-01-29T11:16:11.341Z,734.43
2017-01-29T11:17:11.330Z,734.45
2017-01-29T11:18:11.319Z,734.45
2017-01-29T11:19:11.310Z,734.39
2017-01-29T11:20:11.300Z,734.43
2017-01-29T11:21:11.286Z,734.39
2017-01-29T11:22:11.271Z,734.36
2017-01-29T11:23:11.260Z,734.42
2017-01-29T11:24:11.250Z,734.43
2017-01-29T11:25:11.235Z,734.42
2017-01-29T11:26:11.223Z,734.42
2017-01-29T11:27:11.211Z,734.42
2017-01-29T11:28:11.199Z,734.39
2017-01-29T11:29:11.191Z,734.43
2017-01-29T11:30:11.176Z,734.42
2017-01-29T11:31:11.167Z,734.36
2017-01-29T11:32:11.151Z,734.35
2017-01-29T11:33:11.142Z,734.32
2017-01-29T11:34:11.130Z,734.35
2017-01-29T11:35:11.117Z,734.35
2017-01-29T11:36:11.105Z,734.31
2017-01-29T11:37:11.088Z,734.35
2017-01-29T11:38:11.081Z,734.31
2017-01-29T11:39:11.066Z,734.36
2017-01-29T11:40:11.052Z,734.3
2017-01-29T11:41:11.045Z,734.29
2017-01-29T11:42:11.031Z,734.31
2017-01-29T11:43:11.015Z,734.29
2017-01-29T11:44:11.003Z,734.27
2017-01-29T11:45:10.993Z,734.28
2017-01-29T11:46:10.980Z,734.28
2017-01-29T11:47:10.966Z,734.29
2017-01-29T11:48:10.959Z,734.27
2017-01-29T11:49:10.945Z,734.26
2017-01-29T11:50:10.933Z,734.27
2017-01-29T11:51:10.916Z,734.26
2017-01-29T11:52:10.904Z,734.29
2017-01-29T11:53:10.891Z,734.31
2017-01-29T11:54:10.882Z,734.29
2017-01-29T11:55:10.876Z,734.27
2017-01-29T11:56:10.854Z,734.25
2017-01-29T11:57:10.841Z,734.27
2017-01-29T11:58:10.831Z,734.26
2017-01-29T11:59:10.819Z,734.22
2017-01-29T12:00:10.804Z,734.24
2017-01-29T12:01:10.795Z,734.24
2017-01-29T12:02:10.782Z,734.24
2017-01-29T12:03:10.771Z,734.24
2017-01-29T12:04:10.753Z,734.21
2017-01-29T12:05:10.744Z,734.19
2017-01-29T12:06:10.732Z,734.17
2017-01-29T12:07:10.722Z,734.18
2017-01-29T12:08:10.704Z,734.21
2017-01-29T12:09:10.698Z,734.19
2017-01-29T12:10:10.682Z,734.16
2017-01-29T12:11:10.671Z,734.15
2017-01-29T12:12:10.655Z,734.16
2017-01-29T12:13:10.644Z,734.13
2017-01-29T12:14:10.641Z,734.14
2017-01-29T12:15:10.616Z,734.13
2017-01-29T12:16:10.603Z,734.13
2017-01-29T12:17:10.589Z,734.16
2017-01-29T12:18:10.582Z,734.14
2017-01-29T12:19:10.566Z,734.13
2017-01-29T12:20:10.551Z,734.13
2017-01-29T12:21:10.544Z,734.11
2017-01-29T12:22:10.526Z,734.09
2017-01-29T12:23:10.514Z,734.07
2017-01-29T12:24:10.500Z,734.13
2017-01-29T12:25:10.486Z,734.12
2017-01-29T12:26:10.473Z,734.12
2017-01-29T12:27:10.462Z,734.12
2017-01-29T12:28:10.450Z,734.08
2017-01-29T12:29:10.437Z,734.09
2017-01-29T12:30:10.423Z,734.09